createdAt,value
2019-03-12T00:00:03.055Z,8.30
2019-03-12T00:02:40.666Z,8.17
2019-03-12T00:05:18.132Z,9.03
2019-03-12T00:07:55.656Z,7.83
2019-03-12T00:10:39.667Z,8.23
2019-03-12T00:13:17.163Z,8.63
2019-03-12T00:15:54.640Z,8.37
2019-03-12T00:18:32.124Z,8.70
2019-03-12T00:21:17.112Z,8.50
2019-03-12T00:23:54.601Z,9.70
2019-03-12T00:26:32.102Z,8.43
2019-03-12T00:29:09.575Z,8.70
2019-03-12T00:31:47.189Z,9.33
2019-03-12T00:34:24.659Z,8.67
2019-03-12T00:37:02.160Z,8.93
2019-03-12T00:39:39.636Z,8.87
2019-03-12T00:42:17.263Z,8.90
2019-03-12T00:44:54.734Z,9.37
2019-03-12T00:47:32.255Z,9.23
2019-03-12T00:50:10.165Z,10.00
2019-03-12T00:52:47.666Z,9.77
2019-03-12T00:55:25.144Z,10.37
2019-03-12T00:58:02.643Z,10.53
2019-03-12T01:00:46.427Z,10.80
2019-03-12T01:03:23.937Z,9.37
2019-03-12T01:06:01.418Z,10.13
2019-03-12T01:08:38.956Z,10.07
2019-03-12T01:11:23.608Z,10.47
2019-03-12T01:14:01.095Z,10.83
2019-03-12T01:16:38.602Z,10.23
2019-03-12T01:19:16.087Z,11.20
2019-03-12T01:22:03.093Z,10.33
2019-03-12T01:24:40.556Z,10.53
2019-03-12T01:27:18.047Z,9.87
2019-03-12T01:29:55.527Z,11.00
2019-03-12T01:32:34.065Z,10.00
2019-03-12T01:35:11.559Z,11.37
2019-03-12T01:37:49.047Z,10.10
2019-03-12T01:40:26.621Z,9.10
2019-03-12T01:43:04.110Z,9.87
2019-03-12T01:45:41.586Z,10.03
2019-03-12T01:48:19.083Z,9.57
2019-03-12T01:51:03.543Z,9.63
2019-03-12T01:53:41.033Z,9.47
2019-03-12T01:56:18.512Z,9.13
2019-03-12T01:58:56.014Z,9.23
2019-03-12T02:01:53.072Z,9.13
2019-03-12T02:04:30.561Z,8.47
2019-03-12T02:07:08.095Z,8.43
2019-03-12T02:09:45.577Z,9.30
2019-03-12T02:12:23.178Z,8.93
2019-03-12T02:15:00.656Z,8.67
2019-03-12T02:17:38.131Z,8.57
2019-03-12T02:20:17.495Z,8.30
2019-03-12T02:22:55.000Z,7.87
2019-03-12T02:25:32.473Z,6.13
2019-03-12T02:28:09.967Z,5.47
2019-03-12T02:31:00.943Z,5.47
2019-03-12T02:33:38.433Z,5.13
2019-03-12T02:36:15.933Z,4.70
2019-03-12T02:38:53.441Z,5.47
2019-03-12T02:41:31.011Z,4.73
2019-03-12T02:44:08.494Z,4.60
2019-03-12T02:46:45.963Z,4.97
2019-03-12T02:49:23.472Z,4.70
2019-03-12T02:52:04.043Z,4.57
2019-03-12T02:54:41.666Z,4.93
2019-03-12T02:57:19.138Z,4.27
2019-03-12T02:59:57.033Z,4.90
2019-03-12T03:02:34.529Z,4.60
2019-03-12T03:05:12.026Z,4.27
2019-03-12T03:07:51.350Z,4.50
2019-03-12T03:10:28.942Z,4.70
2019-03-12T03:13:06.443Z,4.50
2019-03-12T03:15:45.455Z,4.97
2019-03-12T03:18:22.939Z,4.80
2019-03-12T03:21:06.795Z,4.27
2019-03-12T03:23:44.305Z,4.50
2019-03-12T03:26:21.769Z,4.63
2019-03-12T03:28:59.315Z,5.30
2019-03-12T03:31:37.805Z,5.07
2019-03-12T03:34:15.314Z,4.83
2019-03-12T03:36:52.769Z,4.80
2019-03-12T03:39:30.273Z,5.67
2019-03-12T03:42:07.861Z,5.37
2019-03-12T03:44:45.345Z,5.93
2019-03-12T03:47:22.822Z,5.30
2019-03-12T03:50:03.932Z,5.77
2019-03-12T03:52:41.447Z,5.60
2019-03-12T03:55:19.673Z,5.27
2019-03-12T03:57:57.158Z,5.53
2019-03-12T04:00:40.954Z,5.03
2019-03-12T04:03:18.457Z,5.90
2019-03-12T04:05:56.283Z,6.27
2019-03-12T04:08:33.813Z,6.03
2019-03-12T04:11:46.466Z,6.20
2019-03-12T04:14:23.952Z,5.70
2019-03-12T04:17:01.419Z,5.80
2019-03-12T04:19:58.805Z,6.07
2019-03-12T04:22:36.315Z,5.90
2019-03-12T04:25:13.790Z,5.37
2019-03-12T04:27:51.272Z,5.50
2019-03-12T04:30:28.860Z,5.40
2019-03-12T04:33:06.330Z,5.27
2019-03-12T04:35:43.827Z,5.40
2019-03-12T04:38:21.318Z,5.37
2019-03-12T04:40:58.913Z,8.03
2019-03-12T04:43:36.416Z,13.80
2019-03-12T04:46:13.901Z,15.17
2019-03-12T04:48:51.391Z,16.37
2019-03-12T04:51:28.992Z,18.23
2019-03-12T04:54:06.494Z,16.30
2019-03-12T04:56:43.953Z,14.67
2019-03-12T04:59:21.450Z,12.60
2019-03-12T05:01:58.931Z,12.30
2019-03-12T05:04:36.426Z,14.83
2019-03-12T05:07:13.922Z,14.33
2019-03-12T05:10:23.316Z,14.27
2019-03-12T05:13:00.810Z,15.43
2019-03-12T05:15:38.342Z,18.50
2019-03-12T05:18:15.836Z,17.13
2019-03-12T05:20:56.729Z,15.07
2019-03-12T05:23:34.226Z,13.10
2019-03-12T05:26:11.700Z,10.30
2019-03-12T05:28:49.198Z,7.77
2019-03-12T05:31:26.772Z,6.97
2019-03-12T05:34:04.282Z,6.70
2019-03-12T05:36:41.754Z,8.63
2019-03-12T05:39:25.850Z,10.37
2019-03-12T05:42:03.324Z,17.83
2019-03-12T05:44:40.799Z,25.60
2019-03-12T05:47:18.287Z,24.77
2019-03-12T05:49:55.896Z,24.43
2019-03-12T05:52:33.364Z,28.40
2019-03-12T05:55:10.928Z,27.10
2019-03-12T05:57:48.490Z,24.53
2019-03-12T06:00:36.108Z,21.67
2019-03-12T06:03:13.582Z,19.07
2019-03-12T06:05:51.112Z,13.33
2019-03-12T06:08:28.571Z,9.63
2019-03-12T06:11:06.165Z,5.80
2019-03-12T06:13:43.642Z,5.27
2019-03-12T06:16:21.182Z,4.93
2019-03-12T06:18:58.752Z,6.17
2019-03-12T06:21:36.175Z,7.80
2019-03-12T06:24:13.679Z,8.40
2019-03-12T06:26:51.137Z,8.53
2019-03-12T06:29:38.139Z,9.47
2019-03-12T06:32:50.587Z,8.50
2019-03-12T06:35:39.711Z,7.80
2019-03-12T06:38:37.433Z,7.20
2019-03-12T06:41:34.094Z,7.00
2019-03-12T06:44:19.778Z,6.50
2019-03-12T06:47:17.946Z,6.23
2019-03-12T06:50:36.872Z,5.87
2019-03-12T06:53:32.982Z,5.20
2019-03-12T06:56:29.131Z,4.60
2019-03-12T06:59:44.445Z,4.33
2019-03-12T07:02:33.589Z,4.50
2019-03-12T07:05:21.372Z,4.67
2019-03-12T07:08:30.463Z,3.83
2019-03-12T07:11:26.553Z,3.53
2019-03-12T07:14:19.028Z,3.67
2019-03-12T07:17:00.345Z,3.93
2019-03-12T07:19:45.189Z,4.03
2019-03-12T07:22:34.953Z,4.20
2019-03-12T07:25:50.504Z,5.23
2019-03-12T07:28:49.834Z,4.53
2019-03-12T07:31:24.268Z,4.20
2019-03-12T07:34:37.186Z,4.67
2019-03-12T07:37:36.153Z,4.80
2019-03-12T07:40:34.076Z,4.70
2019-03-12T07:43:21.068Z,4.70
2019-03-12T07:46:14.142Z,4.27
2019-03-12T07:49:19.603Z,4.80
2019-03-12T07:52:04.652Z,3.33
2019-03-12T07:55:07.679Z,3.80
2019-03-12T07:58:06.751Z,3.53
2019-03-12T08:01:16.019Z,4.20
2019-03-12T08:04:24.633Z,3.20
2019-03-12T08:07:13.772Z,3.43
2019-03-12T08:10:06.443Z,3.30
2019-03-12T08:12:58.439Z,3.40
2019-03-12T08:15:54.278Z,2.90
2019-03-12T08:19:09.809Z,2.93
2019-03-12T08:22:00.144Z,2.80
2019-03-12T08:24:56.267Z,2.40
2019-03-12T08:28:08.705Z,2.50
2019-03-12T08:30:52.724Z,3.07
2019-03-12T08:33:52.076Z,2.50
2019-03-12T08:36:52.570Z,2.40
2019-03-12T08:39:48.789Z,2.60
2019-03-12T08:42:57.848Z,3.10
2019-03-12T08:45:53.635Z,2.70
2019-03-12T08:48:40.756Z,2.70
2019-03-12T08:51:29.006Z,2.87
2019-03-12T08:54:13.438Z,2.80
2019-03-12T08:57:16.015Z,3.13
2019-03-12T09:00:15.733Z,2.87
2019-03-12T09:03:07.086Z,3.40
2019-03-12T09:05:53.632Z,3.20
2019-03-12T09:08:53.887Z,3.07
2019-03-12T09:11:49.610Z,4.10
2019-03-12T09:14:45.413Z,3.80
2019-03-12T09:17:33.373Z,3.70
2019-03-12T09:20:28.237Z,3.83
2019-03-12T09:23:27.367Z,3.37
2019-03-12T09:26:23.459Z,3.40
2019-03-12T09:29:26.496Z,3.30
2019-03-12T09:32:25.979Z,3.27
2019-03-12T09:35:29.982Z,3.10
2019-03-12T09:38:26.078Z,3.20
2019-03-12T09:41:28.256Z,3.30
2019-03-12T09:44:15.314Z,3.30
2019-03-12T09:47:10.694Z,3.53
2019-03-12T09:50:14.422Z,2.60
2019-03-12T09:53:13.279Z,3.50
2019-03-12T09:56:09.377Z,3.17
2019-03-12T09:58:59.532Z,3.90
2019-03-12T10:01:59.388Z,3.00
2019-03-12T10:04:52.659Z,2.77
2019-03-12T10:07:48.758Z,2.73
2019-03-12T10:10:50.812Z,3.60
2019-03-12T10:13:59.117Z,4.80
2019-03-12T10:17:07.896Z,3.97
2019-03-12T10:20:04.056Z,3.57
2019-03-12T10:23:06.330Z,4.13
2019-03-12T10:26:09.384Z,3.73
2019-03-12T10:29:11.915Z,3.30
2019-03-12T10:31:59.006Z,3.70
2019-03-12T10:34:43.902Z,4.53
2019-03-12T10:37:49.740Z,3.93
2019-03-12T10:40:45.832Z,4.53
2019-03-12T10:43:45.151Z,4.23
2019-03-12T10:46:54.295Z,4.40
2019-03-12T10:49:37.360Z,4.60
2019-03-12T10:52:09.287Z,4.67
2019-03-12T10:54:46.794Z,5.37
2019-03-12T10:57:24.272Z,4.97
2019-03-12T11:00:01.884Z,4.90
2019-03-12T11:02:40.662Z,5.63
2019-03-12T11:05:16.859Z,5.23
2019-03-12T11:08:06.786Z,4.87
2019-03-12T11:10:42.110Z,4.87
2019-03-12T11:13:19.510Z,4.80
2019-03-12T11:15:57.000Z,4.77
2019-03-12T11:18:44.388Z,3.77
2019-03-12T11:21:21.871Z,4.90
2019-03-12T11:23:59.360Z,4.47
2019-03-12T11:26:36.839Z,4.43
2019-03-12T11:29:17.527Z,4.27
2019-03-12T11:31:55.013Z,3.77
2019-03-12T11:34:32.498Z,3.97
2019-03-12T11:37:09.996Z,4.27
2019-03-12T11:39:47.635Z,4.13
2019-03-12T11:42:25.130Z,4.90
2019-03-12T11:45:02.629Z,4.00
2019-03-12T11:47:40.087Z,4.00
2019-03-12T11:50:22.231Z,4.37
2019-03-12T11:53:00.547Z,4.13
2019-03-12T11:55:37.039Z,4.27
2019-03-12T11:58:14.673Z,3.60
2019-03-12T12:00:58.283Z,3.43
2019-03-12T12:03:35.770Z,3.50
2019-03-12T12:06:13.295Z,3.63
2019-03-12T12:08:52.228Z,3.50
2019-03-12T12:11:29.733Z,3.37
2019-03-12T12:14:07.242Z,3.30
2019-03-12T12:16:44.744Z,3.20
2019-03-12T12:19:22.340Z,3.03
2019-03-12T12:21:59.844Z,3.20
2019-03-12T12:24:37.337Z,2.60
2019-03-12T12:27:14.836Z,3.20
2019-03-12T12:29:52.480Z,2.90
2019-03-12T12:32:29.971Z,3.20
2019-03-12T12:35:08.381Z,3.40
2019-03-12T12:38:14.311Z,3.47
2019-03-12T12:40:51.799Z,3.17
2019-03-12T12:43:29.272Z,3.53
2019-03-12T12:46:06.752Z,3.00
2019-03-12T12:48:44.379Z,3.33
2019-03-12T12:51:21.883Z,3.30
2019-03-12T12:53:59.373Z,3.40
2019-03-12T12:56:36.880Z,3.37
2019-03-12T12:59:17.906Z,3.30
2019-03-12T13:01:55.411Z,3.20
2019-03-12T13:04:32.878Z,3.87
2019-03-12T13:07:10.397Z,3.90
2019-03-12T13:10:04.206Z,4.07
2019-03-12T13:12:41.730Z,3.70
2019-03-12T13:15:19.103Z,3.70
2019-03-12T13:18:09.861Z,4.40
2019-03-12T13:20:47.329Z,3.90
2019-03-12T13:23:24.824Z,3.73
2019-03-12T13:26:02.316Z,4.40
2019-03-12T13:28:39.897Z,3.87
2019-03-12T13:31:17.373Z,3.67
2019-03-12T13:33:54.877Z,3.53
2019-03-12T13:36:32.349Z,2.90
2019-03-12T13:39:23.118Z,3.70
2019-03-12T13:42:00.444Z,3.63
2019-03-12T13:44:37.960Z,3.17
2019-03-12T13:47:18.724Z,2.70
2019-03-12T13:49:56.301Z,2.80
2019-03-12T13:52:33.711Z,2.70
2019-03-12T13:55:11.602Z,2.97
2019-03-12T13:57:49.243Z,3.63
2019-03-12T14:00:26.749Z,2.93
2019-03-12T14:03:04.291Z,3.57
2019-03-12T14:05:41.794Z,2.87
2019-03-12T14:08:32.654Z,2.87
2019-03-12T14:11:10.167Z,2.83
2019-03-12T14:13:47.671Z,2.90
2019-03-12T14:16:27.266Z,2.90
2019-03-12T14:19:04.847Z,2.67
2019-03-12T14:21:45.313Z,2.77
2019-03-12T14:24:22.817Z,2.90
2019-03-12T14:27:00.301Z,3.17
2019-03-12T14:29:37.845Z,2.73
2019-03-12T14:32:15.355Z,2.40
2019-03-12T14:34:52.848Z,2.60
2019-03-12T14:37:36.058Z,2.80
2019-03-12T14:40:12.051Z,3.13
2019-03-12T14:42:49.572Z,2.00
2019-03-12T14:45:31.236Z,2.50
2019-03-12T14:48:47.954Z,2.30
2019-03-12T14:52:04.385Z,4.67
2019-03-12T14:54:41.868Z,2.60
2019-03-12T14:57:19.518Z,2.10
2019-03-12T14:59:57.077Z,2.20
2019-03-12T15:02:34.550Z,2.63
2019-03-12T15:05:12.076Z,2.43
2019-03-12T15:07:59.452Z,3.17
2019-03-12T15:10:36.955Z,2.67
2019-03-12T15:13:14.446Z,2.47
2019-03-12T15:15:51.963Z,2.63
2019-03-12T15:18:36.451Z,2.20
2019-03-12T15:21:13.987Z,2.87
2019-03-12T15:23:51.497Z,2.50
2019-03-12T15:26:29.009Z,2.20
2019-03-12T15:29:06.579Z,2.80
2019-03-12T15:31:44.092Z,2.40
2019-03-12T15:34:21.586Z,2.93
2019-03-12T15:37:02.845Z,3.83
2019-03-12T15:39:40.324Z,2.60
2019-03-12T15:42:17.819Z,2.30
2019-03-12T15:44:55.335Z,1.73
2019-03-12T15:47:39.120Z,2.70
2019-03-12T15:50:18.929Z,4.50
2019-03-12T15:52:54.240Z,4.10
2019-03-12T15:55:31.700Z,2.80
2019-03-12T15:58:18.771Z,2.30
2019-03-12T16:00:56.241Z,2.70
2019-03-12T16:03:33.749Z,3.17
2019-03-12T16:06:11.247Z,2.97
2019-03-12T16:08:48.838Z,2.70
2019-03-12T16:11:26.328Z,2.97
2019-03-12T16:14:03.885Z,3.10
2019-03-12T16:16:41.364Z,7.37
2019-03-12T16:19:18.886Z,4.70
2019-03-12T16:21:56.381Z,2.60
2019-03-12T16:24:33.893Z,2.77
2019-03-12T16:27:15.650Z,2.90
2019-03-12T16:29:53.146Z,2.80
2019-03-12T16:32:30.610Z,2.43
2019-03-12T16:35:08.160Z,2.50
2019-03-12T16:37:46.757Z,2.13
2019-03-12T16:40:24.234Z,2.47
2019-03-12T16:43:01.722Z,2.10
2019-03-12T16:45:39.208Z,2.40
2019-03-12T16:48:38.806Z,2.50
2019-03-12T16:51:16.118Z,2.30
2019-03-12T16:53:53.634Z,2.30
2019-03-12T16:56:44.144Z,1.80
2019-03-12T16:59:09.032Z,2.30
2019-03-12T17:01:46.112Z,2.47
2019-03-12T17:04:23.644Z,2.60
2019-03-12T17:07:11.220Z,2.53
2019-03-12T17:09:48.749Z,2.70
2019-03-12T17:12:26.214Z,2.77
2019-03-12T17:15:03.720Z,2.90
2019-03-12T17:17:54.789Z,2.53
2019-03-12T17:20:32.279Z,2.70
2019-03-12T17:23:09.754Z,2.93
2019-03-12T17:25:47.240Z,2.90
2019-03-12T17:28:31.516Z,2.87
2019-03-12T17:31:08.983Z,2.60
2019-03-12T17:33:46.482Z,2.90
2019-03-12T17:36:23.948Z,2.73
2019-03-12T17:39:01.435Z,2.60
2019-03-12T17:41:38.894Z,2.43
2019-03-12T17:44:16.411Z,2.63
2019-03-12T17:46:57.525Z,2.80
2019-03-12T17:49:35.026Z,2.47
2019-03-12T17:52:12.480Z,2.27
2019-03-12T17:54:49.989Z,2.70
2019-03-12T17:57:33.654Z,2.47
2019-03-12T18:00:17.866Z,2.60
2019-03-12T18:02:55.350Z,2.80
2019-03-12T18:05:32.837Z,2.60
2019-03-12T18:08:23.658Z,2.70
2019-03-12T18:11:01.148Z,2.60
2019-03-12T18:13:38.626Z,2.77
2019-03-12T18:16:19.340Z,2.77
2019-03-12T18:18:56.844Z,2.57
2019-03-12T18:21:34.300Z,2.87
2019-03-12T18:24:11.817Z,2.80
2019-03-12T18:26:49.399Z,2.40
2019-03-12T18:29:26.921Z,2.60
2019-03-12T18:32:04.387Z,2.80
2019-03-12T18:34:41.895Z,2.60
2019-03-12T18:37:22.533Z,2.97
2019-03-12T18:40:00.011Z,4.80
2019-03-12T18:42:37.496Z,6.50
2019-03-12T18:45:18.616Z,7.70
2019-03-12T18:48:02.738Z,8.13
2019-03-12T18:50:40.237Z,4.87
2019-03-12T18:53:17.715Z,3.37
2019-03-12T18:56:13.826Z,3.50
2019-03-12T18:58:51.306Z,3.47
2019-03-12T19:01:28.819Z,2.97
2019-03-12T19:04:06.362Z,3.50
2019-03-12T19:06:51.185Z,3.43
2019-03-12T19:09:28.704Z,3.07
2019-03-12T19:12:06.162Z,2.83
2019-03-12T19:14:43.669Z,3.43
2019-03-12T19:17:22.163Z,2.73
2019-03-12T19:19:59.659Z,2.70
2019-03-12T19:22:37.112Z,2.70
2019-03-12T19:25:14.611Z,2.80
2019-03-12T19:28:00.222Z,2.57
2019-03-12T19:30:35.759Z,2.33
2019-03-12T19:33:15.088Z,2.90
2019-03-12T19:35:52.581Z,2.93
2019-03-12T19:38:30.047Z,2.90
2019-03-12T19:41:07.539Z,2.57
2019-03-12T19:43:45.046Z,2.60
2019-03-12T19:46:29.350Z,2.83
2019-03-12T19:49:06.807Z,2.30
2019-03-12T19:51:44.296Z,2.47
2019-03-12T19:54:21.770Z,2.10
2019-03-12T19:56:59.323Z,2.30
2019-03-12T19:59:36.837Z,2.30
2019-03-12T20:02:16.322Z,2.00
2019-03-12T20:04:51.781Z,2.03
2019-03-12T20:07:29.339Z,2.10
2019-03-12T20:10:51.773Z,2.30
2019-03-12T20:14:21.501Z,2.20
2019-03-12T20:18:04.115Z,2.13
2019-03-12T20:21:41.327Z,1.93
2019-03-12T20:25:24.858Z,2.53
2019-03-12T20:29:14.502Z,2.00
2019-03-12T20:32:48.417Z,2.13
2019-03-12T20:36:28.087Z,1.83
2019-03-12T20:39:55.834Z,2.93
2019-03-12T20:43:29.029Z,1.90
2019-03-12T20:47:09.849Z,2.73
2019-03-12T20:50:46.972Z,2.80
2019-03-12T20:54:37.474Z,8.10
2019-03-12T20:58:10.899Z,8.13
2019-03-12T21:02:01.097Z,6.80
2019-03-12T21:05:44.502Z,5.07
2019-03-12T21:09:40.696Z,1.77
2019-03-12T21:13:16.994Z,2.00
2019-03-12T21:17:11.478Z,1.63
2019-03-12T21:20:54.376Z,2.00
2019-03-12T21:24:33.639Z,1.90
2019-03-12T21:28:36.423Z,1.80
2019-03-12T21:31:15.062Z,1.80
2019-03-12T21:33:51.452Z,1.80
2019-03-12T21:36:42.141Z,1.97
2019-03-12T21:39:19.616Z,1.70
2019-03-12T21:41:57.109Z,1.60
2019-03-12T21:44:34.622Z,1.70
2019-03-12T21:47:12.228Z,1.60
2019-03-12T21:49:49.696Z,1.67
2019-03-12T21:52:27.206Z,2.07
2019-03-12T21:55:04.688Z,2.03
2019-03-12T21:57:42.266Z,1.70
2019-03-12T22:00:20.100Z,1.70
2019-03-12T22:02:57.613Z,2.03
2019-03-12T22:05:44.755Z,1.90
2019-03-12T22:08:25.114Z,1.50
2019-03-12T22:10:59.732Z,1.87
2019-03-12T22:13:37.254Z,1.53
2019-03-12T22:16:14.836Z,1.80
2019-03-12T22:18:52.326Z,1.67
2019-03-12T22:21:48.464Z,1.63
2019-03-12T22:24:25.925Z,1.40
2019-03-12T22:27:09.907Z,1.80
2019-03-12T22:29:47.376Z,1.97
2019-03-12T22:32:24.868Z,1.70
2019-03-12T22:35:02.336Z,1.97
2019-03-12T22:37:39.834Z,1.77
2019-03-12T22:40:17.310Z,1.90
2019-03-12T22:42:54.825Z,1.80
2019-03-12T22:45:48.873Z,1.47
2019-03-12T22:48:26.368Z,1.30
2019-03-12T22:51:03.854Z,1.60
2019-03-12T22:53:41.410Z,1.43
2019-03-12T22:56:18.976Z,1.90
2019-03-12T22:58:56.467Z,1.70
2019-03-12T23:01:33.935Z,1.60
2019-03-12T23:04:11.419Z,1.30
2019-03-12T23:06:50.647Z,1.43
2019-03-12T23:09:28.138Z,1.70
2019-03-12T23:12:05.916Z,1.40
2019-03-12T23:14:43.410Z,1.50
2019-03-12T23:17:24.168Z,1.47
2019-03-12T23:20:01.641Z,1.60
2019-03-12T23:22:39.146Z,1.70
2019-03-12T23:25:29.921Z,1.40
2019-03-12T23:28:07.416Z,1.50
2019-03-12T23:30:45.231Z,1.50
2019-03-12T23:33:22.797Z,1.70
2019-03-12T23:36:00.668Z,1.53
2019-03-12T23:38:38.156Z,1.80
2019-03-12T23:41:15.626Z,1.53
2019-03-12T23:43:53.157Z,1.60
2019-03-12T23:46:33.823Z,1.50
2019-03-12T23:49:11.314Z,2.17
2019-03-12T23:51:48.784Z,1.83
2019-03-12T23:54:26.277Z,1.60
2019-03-12T23:57:09.846Z,1.47
2019-03-12T23:59:47.359Z,1.50
